Terminal Aerodrome Forecast
Issued by NWS Albany, NY

Home | Current Version | Previous Version | Text Only | Print | Product List | Glossary On
Versions: 1 2 3 4 5 6 7 8 9 10 11 12 13 14 15 16
000
FTUS41 KALY 301100
TAFALB
TAF
KALB 301137Z 3012/0112 VRB03KT P6SM SCT002 OVC015
      TEMPO 3014/3016 OVC025
     FM301600 13005KT P6SM BKN030
      TEMPO 3018/3022 SCT030 SCT120
     FM010000 10003KT P6SM BKN030
     FM010500 VRB02KT 4SM BR BKN030=

USA.gov is the U.S. government's official web portal to all federal, state and local government web resources and services.